createdAt,value
2018-05-04T00:00:10.464Z,13.00
2018-05-04T00:02:38.711Z,13.00
2018-05-04T00:05:06.955Z,13.00
2018-05-04T00:07:35.963Z,12.90
2018-05-04T00:10:04.218Z,12.80
2018-05-04T00:12:32.447Z,12.80
2018-05-04T00:15:01.462Z,12.70
2018-05-04T00:17:30.455Z,12.70
2018-05-04T00:20:00.215Z,12.70
2018-05-04T00:22:28.455Z,12.70
2018-05-04T00:24:56.709Z,12.70
2018-05-04T00:27:24.938Z,12.70
2018-05-04T00:29:53.195Z,12.70
2018-05-04T00:32:21.445Z,12.70
2018-05-04T00:34:50.455Z,12.90
2018-05-04T00:37:18.738Z,12.80
2018-05-04T00:39:47.755Z,12.90
2018-05-04T00:42:15.993Z,12.90
2018-05-04T00:44:44.250Z,12.80
2018-05-04T00:47:12.483Z,12.80
2018-05-04T00:49:41.881Z,12.70
2018-05-04T00:52:10.124Z,12.70
2018-05-04T00:54:38.375Z,12.70
2018-05-04T00:57:06.613Z,12.70
2018-05-04T00:59:34.871Z,12.60
2018-05-04T01:02:04.666Z,12.40
2018-05-04T01:04:32.897Z,12.40
2018-05-04T01:07:01.148Z,12.40
2018-05-04T01:09:29.390Z,12.30
2018-05-04T01:11:57.639Z,12.20
2018-05-04T01:14:26.634Z,12.00
2018-05-04T01:16:54.882Z,11.90
2018-05-04T01:19:23.226Z,11.90
2018-05-04T01:21:52.287Z,11.70
2018-05-04T01:24:20.503Z,11.70
2018-05-04T01:26:48.767Z,11.70
2018-05-04T01:29:17.012Z,11.60
2018-05-04T01:31:45.254Z,11.60
2018-05-04T01:34:13.486Z,11.50
2018-05-04T01:36:42.604Z,11.40
2018-05-04T01:39:10.893Z,11.30
2018-05-04T01:41:39.903Z,11.30
2018-05-04T01:44:08.171Z,11.20
2018-05-04T01:46:37.185Z,11.20
2018-05-04T01:49:06.187Z,11.10
2018-05-04T01:51:35.291Z,11.00
2018-05-04T01:54:04.299Z,11.00
2018-05-04T01:56:33.340Z,10.90
2018-05-04T01:59:01.574Z,10.90
2018-05-04T02:01:29.835Z,10.90
2018-05-04T02:03:58.068Z,10.80
2018-05-04T02:06:26.319Z,10.80
2018-05-04T02:08:54.555Z,10.80
2018-05-04T02:11:23.605Z,10.70
2018-05-04T02:13:51.843Z,10.60
2018-05-04T02:16:20.115Z,10.70
2018-05-04T02:18:48.539Z,10.60
2018-05-04T02:21:17.535Z,10.60
2018-05-04T02:23:46.564Z,10.60
2018-05-04T02:26:14.821Z,10.60
2018-05-04T02:28:43.061Z,10.60
2018-05-04T02:31:11.302Z,10.50
2018-05-04T02:33:40.315Z,10.40
2018-05-04T02:36:09.306Z,10.40
2018-05-04T02:38:37.558Z,10.30
2018-05-04T02:41:05.803Z,10.30
2018-05-04T02:43:34.823Z,10.30
2018-05-04T02:46:03.059Z,10.20
2018-05-04T02:48:31.311Z,10.30
2018-05-04T02:51:00.313Z,10.30
2018-05-04T02:53:28.563Z,10.20
2018-05-04T02:55:56.837Z,10.20
2018-05-04T02:58:25.829Z,10.30
2018-05-04T03:00:54.066Z,10.30
2018-05-04T03:03:23.076Z,10.50
2018-05-04T03:05:52.075Z,10.60
2018-05-04T03:08:21.095Z,10.70
2018-05-04T03:10:50.103Z,10.70
2018-05-04T03:13:18.367Z,10.70
2018-05-04T03:15:46.614Z,10.80
2018-05-04T03:18:14.860Z,10.70
2018-05-04T03:20:43.863Z,10.70
2018-05-04T03:23:12.877Z,10.60
2018-05-04T03:25:41.899Z,10.50
2018-05-04T03:28:10.151Z,10.40
2018-05-04T03:30:39.978Z,10.30
2018-05-04T03:33:08.227Z,10.30
2018-05-04T03:35:36.460Z,10.20
2018-05-04T03:38:04.706Z,10.20
2018-05-04T03:40:32.958Z,10.10
2018-05-04T03:43:01.220Z,10.10
2018-05-04T03:45:29.462Z,10.00
2018-05-04T03:47:57.700Z,10.00
2018-05-04T03:50:25.951Z,9.90
2018-05-04T03:52:54.197Z,9.80
2018-05-04T03:55:23.207Z,9.80
2018-05-04T03:58:09.908Z,9.80
2018-05-04T04:00:56.566Z,9.70
2018-05-04T04:06:34.907Z,9.70
2018-05-04T04:09:03.939Z,9.70
2018-05-04T04:11:32.181Z,9.60
2018-05-04T04:14:00.426Z,9.60
2018-05-04T04:16:28.659Z,9.70
2018-05-04T04:18:56.918Z,9.70
2018-05-04T04:21:25.149Z,9.70
2018-05-04T04:23:54.176Z,9.80
2018-05-04T04:26:22.412Z,9.80
2018-05-04T04:28:50.645Z,9.90
2018-05-04T04:31:18.948Z,10.00
2018-05-04T04:33:47.958Z,10.20
2018-05-04T04:36:16.241Z,10.10
2018-05-04T04:38:44.478Z,10.30
2018-05-04T04:41:12.727Z,10.40
2018-05-04T04:43:40.958Z,10.50
2018-05-04T04:46:09.211Z,10.50
2018-05-04T04:48:37.450Z,10.60
2018-05-04T04:51:05.699Z,10.60
2018-05-04T04:53:33.973Z,10.70
2018-05-04T04:56:02.223Z,10.70
2018-05-04T04:58:31.223Z,11.00
2018-05-04T05:00:59.462Z,10.90
2018-05-04T05:03:27.748Z,11.00
2018-05-04T05:05:55.990Z,11.00
2018-05-04T05:08:24.310Z,11.10
2018-05-04T05:10:52.550Z,11.10
2018-05-04T05:13:20.784Z,11.20
2018-05-04T05:15:49.050Z,11.30
2018-05-04T05:18:17.287Z,11.40
2018-05-04T05:20:45.607Z,11.50
2018-05-04T05:23:13.840Z,11.60
2018-05-04T05:25:42.100Z,11.70
2018-05-04T05:28:10.311Z,11.80
2018-05-04T05:30:38.587Z,12.00
2018-05-04T05:33:06.817Z,12.00
2018-05-04T05:35:35.071Z,12.10
2018-05-04T05:38:04.078Z,12.30
2018-05-04T05:40:33.202Z,12.50
2018-05-04T05:43:01.431Z,12.40
2018-05-04T05:45:29.667Z,12.70
2018-05-04T05:47:57.926Z,12.90
2018-05-04T05:50:26.167Z,13.10
2018-05-04T05:52:54.410Z,13.20
2018-05-04T05:55:23.406Z,13.80
2018-05-04T05:57:51.666Z,13.70
2018-05-04T06:00:19.908Z,14.70
2018-05-04T06:02:48.945Z,17.10
2018-05-04T06:05:17.210Z,17.10
2018-05-04T06:07:45.492Z,18.00
2018-05-04T06:10:14.498Z,19.00
2018-05-04T06:12:43.546Z,19.40
2018-05-04T06:15:11.767Z,19.40
2018-05-04T06:17:40.031Z,19.70
2018-05-04T06:20:08.267Z,20.00
2018-05-04T06:22:37.277Z,18.80
2018-05-04T06:25:06.407Z,17.80
2018-05-04T06:27:35.291Z,17.10
2018-05-04T06:30:04.307Z,16.40
2018-05-04T06:32:32.563Z,16.30
2018-05-04T06:35:00.801Z,15.70
2018-05-04T06:37:29.843Z,15.10
2018-05-04T06:39:58.089Z,15.00
2018-05-04T06:42:26.348Z,14.70
2018-05-04T06:44:55.371Z,14.80
2018-05-04T06:47:24.384Z,15.10
2018-05-04T06:49:52.645Z,15.10
2018-05-04T06:52:20.931Z,15.40
2018-05-04T06:54:49.180Z,15.70
2018-05-04T06:57:17.449Z,15.80
2018-05-04T06:59:46.456Z,15.80
2018-05-04T07:02:14.706Z,15.80
2018-05-04T07:04:42.943Z,15.60
2018-05-04T07:07:11.200Z,15.30
2018-05-04T07:09:39.451Z,15.30
2018-05-04T07:12:07.686Z,15.60
2018-05-04T07:14:35.947Z,16.00
2018-05-04T07:17:04.183Z,16.30
2018-05-04T07:19:32.447Z,16.50
2018-05-04T07:22:00.686Z,16.80
2018-05-04T07:24:28.940Z,17.00
2018-05-04T07:26:57.174Z,16.90
2018-05-04T07:29:25.427Z,16.70
2018-05-04T07:31:53.671Z,16.50
2018-05-04T07:34:22.691Z,16.50
2018-05-04T07:36:51.690Z,17.00
2018-05-04T07:39:20.716Z,17.40
2018-05-04T07:41:48.969Z,17.40
2018-05-04T07:44:17.227Z,17.60
2018-05-04T07:46:46.273Z,17.60
2018-05-04T07:49:15.320Z,17.30
2018-05-04T07:51:43.568Z,17.30
2018-05-04T07:54:11.854Z,17.30
2018-05-04T07:56:40.087Z,17.40
2018-05-04T07:59:08.414Z,17.30
2018-05-04T08:01:37.368Z,16.90
2018-05-04T08:04:05.619Z,16.90
2018-05-04T08:06:33.867Z,16.90
2018-05-04T08:09:02.120Z,16.90
2018-05-04T08:11:31.114Z,17.40
2018-05-04T08:14:00.139Z,17.50
2018-05-04T08:16:29.204Z,17.80
2018-05-04T08:18:58.223Z,17.90
2018-05-04T08:21:26.468Z,17.80
2018-05-04T08:23:54.740Z,18.10
2018-05-04T08:26:23.032Z,18.20
2018-05-04T08:28:51.264Z,17.80
2018-05-04T08:31:19.539Z,17.40
2018-05-04T08:33:47.787Z,17.30
2018-05-04T08:36:16.063Z,17.40
2018-05-04T08:38:45.063Z,17.60
2018-05-04T08:41:14.097Z,17.80
2018-05-04T08:43:42.335Z,17.80
2018-05-04T08:46:10.610Z,17.60
2018-05-04T08:48:38.847Z,17.50
2018-05-04T08:51:07.941Z,17.30
2018-05-04T08:53:36.120Z,17.20
2018-05-04T08:56:05.138Z,17.40
2018-05-04T08:58:34.174Z,17.40
2018-05-04T09:01:03.184Z,17.70
2018-05-04T09:03:31.418Z,17.70
2018-05-04T09:05:59.675Z,17.90
2018-05-04T09:08:27.916Z,18.20
2018-05-04T09:10:56.167Z,18.30
2018-05-04T09:13:24.400Z,18.40
2018-05-04T09:15:53.426Z,18.70
2018-05-04T09:18:21.659Z,18.70
2018-05-04T09:20:49.912Z,19.00
2018-05-04T09:23:19.094Z,19.30
2018-05-04T09:25:48.128Z,19.50
2018-05-04T09:28:16.359Z,19.50
2018-05-04T09:30:45.390Z,19.30
2018-05-04T09:33:13.616Z,19.30
2018-05-04T09:35:41.875Z,19.20
2018-05-04T09:38:10.878Z,19.30
2018-05-04T09:40:39.874Z,19.20
2018-05-04T09:43:08.892Z,19.10
2018-05-04T09:45:37.908Z,19.10
2018-05-04T09:48:06.179Z,19.00
2018-05-04T09:50:35.194Z,19.30
2018-05-04T09:53:04.215Z,19.30
2018-05-04T09:55:32.458Z,19.30
2018-05-04T09:58:00.752Z,19.50
2018-05-04T10:00:28.986Z,19.50
2018-05-04T10:02:57.286Z,19.60
2018-05-04T10:05:25.531Z,19.90
2018-05-04T10:07:54.599Z,20.30
2018-05-04T10:10:22.830Z,20.30
2018-05-04T10:12:51.846Z,20.10
2018-05-04T10:15:20.861Z,20.20
2018-05-04T10:17:49.870Z,20.20
2018-05-04T10:20:18.119Z,20.10
2018-05-04T10:22:46.383Z,20.10
2018-05-04T10:25:14.628Z,20.10
2018-05-04T10:27:43.723Z,20.10
2018-05-04T10:30:12.723Z,20.20
2018-05-04T10:32:40.979Z,20.20
2018-05-04T10:35:09.214Z,20.10
2018-05-04T10:37:38.243Z,20.30
2018-05-04T10:40:06.496Z,20.30
2018-05-04T10:42:34.749Z,20.40
2018-05-04T10:45:03.024Z,20.50
2018-05-04T10:47:31.288Z,20.50
2018-05-04T10:50:00.279Z,20.40
2018-05-04T10:52:29.296Z,20.40
2018-05-04T10:54:58.294Z,20.50
2018-05-04T10:57:27.319Z,20.50
2018-05-04T10:59:55.559Z,20.50
2018-05-04T11:02:23.811Z,20.70
2018-05-04T11:04:52.051Z,21.00
2018-05-04T11:07:20.321Z,21.30
2018-05-04T11:09:48.543Z,21.40
2018-05-04T11:12:17.584Z,21.60
2018-05-04T11:14:45.831Z,21.60
2018-05-04T11:17:14.877Z,21.80
2018-05-04T11:19:43.167Z,21.80
2018-05-04T11:22:11.403Z,21.80
2018-05-04T11:24:39.656Z,21.40
2018-05-04T11:27:07.890Z,21.70
2018-05-04T11:29:36.911Z,22.70
2018-05-04T11:32:05.915Z,22.70
2018-05-04T11:34:34.919Z,22.70
2018-05-04T11:37:03.939Z,22.40
2018-05-04T11:39:32.172Z,22.40
2018-05-04T11:42:01.223Z,22.10
2018-05-04T11:44:30.216Z,22.20
2018-05-04T11:46:59.216Z,22.40
2018-05-04T11:49:27.480Z,22.40
2018-05-04T11:51:55.710Z,22.50
2018-05-04T11:54:24.732Z,22.10
2018-05-04T11:56:52.972Z,22.10
2018-05-04T11:59:21.227Z,22.20
2018-05-04T12:01:49.458Z,22.40
2018-05-04T12:04:17.740Z,22.40
2018-05-04T12:06:45.988Z,22.20
2018-05-04T12:09:14.253Z,22.30
2018-05-04T12:11:43.271Z,22.10
2018-05-04T12:14:11.507Z,22.10
2018-05-04T12:16:39.817Z,22.10
2018-05-04T12:19:08.006Z,22.30
2018-05-04T12:21:36.270Z,22.50
2018-05-04T12:24:05.283Z,22.60
2018-05-04T12:26:33.553Z,22.60
2018-05-04T12:29:01.791Z,22.90
2018-05-04T12:31:30.812Z,23.40
2018-05-04T12:33:59.047Z,23.40
2018-05-04T12:36:27.311Z,23.50
2018-05-04T12:38:55.542Z,23.40
2018-05-04T12:41:23.810Z,23.40
2018-05-04T12:43:52.043Z,23.60
2018-05-04T12:46:21.076Z,23.40
2018-05-04T12:48:49.314Z,23.40
2018-05-04T12:51:18.396Z,22.70
2018-05-04T12:53:46.694Z,22.60
2018-05-04T12:56:14.884Z,22.60
2018-05-04T12:58:43.144Z,22.70
2018-05-04T13:01:11.375Z,22.80
2018-05-04T13:03:39.638Z,22.70
2018-05-04T13:06:07.891Z,22.70
2018-05-04T13:08:36.985Z,23.40
2018-05-04T13:11:06.724Z,23.30
2018-05-04T13:13:35.740Z,23.20
2018-05-04T13:16:03.981Z,23.10
2018-05-04T13:18:32.259Z,23.40
2018-05-04T13:21:00.495Z,23.50
2018-05-04T13:23:28.756Z,23.60
2018-05-04T13:25:56.990Z,23.70
2018-05-04T13:28:25.246Z,23.40
2018-05-04T13:30:54.247Z,23.10
2018-05-04T13:33:23.496Z,23.10
2018-05-04T13:35:51.776Z,23.10
2018-05-04T13:38:20.048Z,23.10
2018-05-04T13:40:49.070Z,23.20
2018-05-04T13:43:17.345Z,23.10
2018-05-04T13:45:45.590Z,23.40
2018-05-04T13:48:13.844Z,23.00
2018-05-04T13:50:42.158Z,22.90
2018-05-04T13:53:10.339Z,22.80
2018-05-04T13:55:38.575Z,22.90
2018-05-04T13:58:07.599Z,22.60
2018-05-04T14:00:35.833Z,22.50
2018-05-04T14:03:04.092Z,22.50
2018-05-04T14:05:32.334Z,22.40
2018-05-04T14:08:00.586Z,22.30
2018-05-04T14:10:28.821Z,22.30
2018-05-04T14:12:57.853Z,22.40
2018-05-04T14:15:26.107Z,22.30
2018-05-04T14:17:54.391Z,22.30
2018-05-04T14:20:22.631Z,22.20
2018-05-04T14:22:50.866Z,22.00
2018-05-04T14:25:19.140Z,21.90
2018-05-04T14:27:47.396Z,21.90
2018-05-04T14:30:15.644Z,21.80
2018-05-04T14:32:43.874Z,21.70
2018-05-04T14:35:12.133Z,21.70
2018-05-04T14:37:41.133Z,21.70
2018-05-04T14:40:09.413Z,21.60
2018-05-04T14:42:37.636Z,21.70
2018-05-04T14:45:05.897Z,21.80
2018-05-04T14:47:34.957Z,21.80
2018-05-04T14:50:03.230Z,21.80
2018-05-04T14:52:31.463Z,21.80
2018-05-04T14:54:59.732Z,21.90
2018-05-04T14:57:27.987Z,22.00
2018-05-04T14:59:56.246Z,22.20
2018-05-04T15:02:25.252Z,22.30
2018-05-04T15:04:54.283Z,22.50
2018-05-04T15:07:22.523Z,22.40
2018-05-04T15:09:50.792Z,22.60
2018-05-04T15:12:19.051Z,22.60
2018-05-04T15:14:47.318Z,22.50
2018-05-04T15:17:16.322Z,22.80
2018-05-04T15:19:45.351Z,23.10
2018-05-04T15:22:13.596Z,23.00
2018-05-04T15:24:41.858Z,23.00
2018-05-04T15:27:10.094Z,22.80
2018-05-04T15:29:39.107Z,22.80
2018-05-04T15:32:08.108Z,22.80
2018-05-04T15:34:37.144Z,22.70
2018-05-04T15:37:05.385Z,22.70
2018-05-04T15:39:33.628Z,22.60
2018-05-04T15:42:01.907Z,22.70
2018-05-04T15:44:30.134Z,22.70
2018-05-04T15:46:58.387Z,22.80
2018-05-04T15:49:26.633Z,22.90
2018-05-04T15:52:00.404Z,22.90
2018-05-04T15:54:28.648Z,22.70
2018-05-04T15:56:57.665Z,22.40
2018-05-04T15:59:26.669Z,22.20
2018-05-04T16:01:55.693Z,22.10
2018-05-04T16:04:24.689Z,21.90
2018-05-04T16:06:53.695Z,21.90
2018-05-04T16:09:22.696Z,21.90
2018-05-04T16:11:51.722Z,21.80
2018-05-04T16:14:19.955Z,21.80
2018-05-04T16:16:48.219Z,21.90
2018-05-04T16:19:16.458Z,21.90
2018-05-04T16:21:45.484Z,21.70
2018-05-04T16:24:14.493Z,21.60
2018-05-04T16:26:42.742Z,21.60
2018-05-04T16:29:10.974Z,21.50
2018-05-04T16:31:39.235Z,21.50
2018-05-04T16:36:37.077Z,21.40
2018-05-04T16:39:05.736Z,21.40
2018-05-04T16:41:34.063Z,21.30
2018-05-04T16:44:03.080Z,21.10
2018-05-04T16:49:32.999Z,21.10
2018-05-04T16:52:02.051Z,20.90
2018-05-04T16:54:30.314Z,20.90
2018-05-04T16:56:58.567Z,20.90
2018-05-04T16:59:26.796Z,20.80
2018-05-04T17:01:55.043Z,20.70
2018-05-04T17:04:23.282Z,20.50
2018-05-04T17:06:52.305Z,20.40
2018-05-04T17:09:20.550Z,20.30
2018-05-04T17:11:48.819Z,20.30
2018-05-04T17:14:17.059Z,20.30
2018-05-04T17:16:45.309Z,20.30
2018-05-04T17:19:13.547Z,20.30
2018-05-04T17:21:41.917Z,20.30
2018-05-04T17:24:10.916Z,20.00
2018-05-04T17:26:39.911Z,20.00
2018-05-04T17:29:08.184Z,19.90
2018-05-04T17:31:36.419Z,19.90
2018-05-04T17:34:04.885Z,19.90
2018-05-04T17:36:33.063Z,19.80
2018-05-04T17:39:02.096Z,19.70
2018-05-04T17:41:31.115Z,19.70
2018-05-04T17:43:59.387Z,19.60
2018-05-04T17:46:27.706Z,19.60
2018-05-04T17:48:55.972Z,19.40
2018-05-04T17:51:24.345Z,19.40
2018-05-04T17:53:53.355Z,19.30
2018-05-04T17:56:22.361Z,19.20
2018-05-04T17:58:51.386Z,19.20
2018-05-04T18:01:19.693Z,19.10
2018-05-04T18:03:51.185Z,19.10
2018-05-04T18:06:19.448Z,19.00
2018-05-04T18:08:47.821Z,19.10
2018-05-04T18:11:16.063Z,19.00
2018-05-04T18:13:44.650Z,18.80
2018-05-04T18:16:14.399Z,18.60
2018-05-04T18:18:43.423Z,18.50
2018-05-04T18:21:11.647Z,18.40
2018-05-04T18:23:40.752Z,18.30
2018-05-04T18:26:08.913Z,18.20
2018-05-04T18:28:37.186Z,18.20
2018-05-04T18:31:06.199Z,18.10
2018-05-04T18:33:35.264Z,18.00
2018-05-04T18:36:03.506Z,18.00
2018-05-04T18:38:31.784Z,18.00
2018-05-04T18:41:00.898Z,17.90
2018-05-04T18:43:29.083Z,17.80
2018-05-04T18:45:58.819Z,17.60
2018-05-04T18:48:28.627Z,17.60
2018-05-04T18:50:57.653Z,17.50
2018-05-04T18:53:25.902Z,17.50
2018-05-04T18:55:55.751Z,17.50
2018-05-04T18:58:24.764Z,17.40
2018-05-04T19:00:53.042Z,17.40
2018-05-04T19:03:22.182Z,17.30
2018-05-04T19:05:50.466Z,17.20
2018-05-04T19:08:18.785Z,17.10
2018-05-04T19:10:47.055Z,17.10
2018-05-04T19:13:15.301Z,17.10
2018-05-04T19:15:44.531Z,17.00
2018-05-04T19:18:12.775Z,17.00
2018-05-04T19:20:41.104Z,17.00
2018-05-04T19:23:09.323Z,17.00
2018-05-04T19:25:37.604Z,16.90
2018-05-04T19:28:05.828Z,16.80
2018-05-04T19:30:34.189Z,16.70
2018-05-04T19:33:02.623Z,16.60
2018-05-04T19:35:30.894Z,16.50
2018-05-04T19:37:59.973Z,16.40
2018-05-04T19:40:28.236Z,16.40
2018-05-04T19:42:57.254Z,16.30
2018-05-04T19:45:25.555Z,16.30
2018-05-04T19:47:53.790Z,16.30
2018-05-04T19:50:22.993Z,16.20
2018-05-04T19:52:51.235Z,16.10
2018-05-04T19:55:19.496Z,15.90
2018-05-04T19:57:48.525Z,15.90
2018-05-04T20:00:16.807Z,15.90
2018-05-04T20:02:45.809Z,15.70
2018-05-04T20:05:14.064Z,15.60
2018-05-04T20:07:42.308Z,15.50
2018-05-04T20:10:10.716Z,15.50
2018-05-04T20:12:38.978Z,15.40
2018-05-04T20:15:07.248Z,15.40
2018-05-04T20:17:36.251Z,15.30
2018-05-04T20:20:05.335Z,15.10
2018-05-04T20:22:33.615Z,15.10
2018-05-04T20:25:01.865Z,15.10
2018-05-04T20:27:30.121Z,15.10
2018-05-04T20:29:58.355Z,15.00
2018-05-04T20:32:26.639Z,15.00
2018-05-04T20:34:55.005Z,14.80
2018-05-04T20:37:23.344Z,14.80
2018-05-04T20:39:53.110Z,14.90
2018-05-04T20:42:22.141Z,14.90
2018-05-04T20:44:50.382Z,14.80
2018-05-04T20:47:18.739Z,14.80
2018-05-04T20:49:47.015Z,14.80
2018-05-04T20:52:16.021Z,14.70
2018-05-04T20:54:44.298Z,14.60
2018-05-04T20:57:13.339Z,14.80
2018-05-04T20:59:41.584Z,14.80
2018-05-04T21:02:10.609Z,14.90
2018-05-04T21:04:39.081Z,14.90
2018-05-04T21:07:08.308Z,14.80
2018-05-04T21:09:36.556Z,14.80
2018-05-04T21:12:04.962Z,14.80
2018-05-04T21:14:33.545Z,14.80
2018-05-04T21:17:01.860Z,14.70
2018-05-04T21:19:31.067Z,14.60
2018-05-04T21:22:00.077Z,14.60
2018-05-04T21:24:29.081Z,14.50
2018-05-04T21:26:58.173Z,14.40
2018-05-04T21:29:26.406Z,14.40
2018-05-04T21:31:54.665Z,14.40
2018-05-04T21:34:23.671Z,14.30
2018-05-04T21:36:52.739Z,14.30
2018-05-04T21:39:21.127Z,14.30
2018-05-04T21:41:49.432Z,14.30
2018-05-04T21:44:17.708Z,14.40
2018-05-04T21:46:45.974Z,14.40
2018-05-04T21:49:14.207Z,14.30
2018-05-04T21:51:44.043Z,14.10
2018-05-04T21:54:13.047Z,14.10
2018-05-04T21:56:42.178Z,14.20
2018-05-04T21:59:15.544Z,14.10
2018-05-04T22:01:43.746Z,14.10
2018-05-04T22:04:12.863Z,14.00
2018-05-04T22:06:41.171Z,13.90
2018-05-04T22:09:11.214Z,13.80
2018-05-04T22:11:41.069Z,13.80
2018-05-04T22:14:10.347Z,13.80
2018-05-04T22:16:38.649Z,13.80
2018-05-04T22:19:08.154Z,13.80
2018-05-04T22:21:37.840Z,13.80
2018-05-04T22:24:06.685Z,13.80
2018-05-04T22:26:39.588Z,13.80
2018-05-04T22:29:08.956Z,13.70
2018-05-04T22:31:37.211Z,13.80
2018-05-04T22:34:05.688Z,13.80
2018-05-04T22:36:36.340Z,13.80
2018-05-04T22:39:08.787Z,13.90
2018-05-04T22:41:38.050Z,13.90
2018-05-04T22:44:07.000Z,13.90
2018-05-04T22:46:40.275Z,14.00
2018-05-04T22:49:09.343Z,13.90
2018-05-04T22:51:41.096Z,14.10
2018-05-04T22:54:11.794Z,14.00
2018-05-04T22:56:41.037Z,14.20
2018-05-04T22:59:09.319Z,14.20
2018-05-04T23:01:37.547Z,14.30
2018-05-04T23:04:07.503Z,14.40
2018-05-04T23:06:35.752Z,14.30
2018-05-04T23:09:06.942Z,14.40
2018-05-04T23:11:35.500Z,14.40
2018-05-04T23:14:03.750Z,14.40
2018-05-04T23:16:32.523Z,14.30
2018-05-04T23:19:00.771Z,14.30
2018-05-04T23:21:29.005Z,14.20
2018-05-04T23:23:57.355Z,14.20
2018-05-04T23:26:25.606Z,14.20
2018-05-04T23:28:53.907Z,14.10
2018-05-04T23:31:22.145Z,14.10
2018-05-04T23:33:51.143Z,14.10
2018-05-04T23:36:20.171Z,14.10
2018-05-04T23:38:48.406Z,14.00
2018-05-04T23:41:16.651Z,14.00
2018-05-04T23:43:44.911Z,14.00
2018-05-04T23:46:13.199Z,14.00
2018-05-04T23:48:41.558Z,14.00
2018-05-04T23:51:09.828Z,14.00
2018-05-04T23:53:38.063Z,14.00
2018-05-04T23:56:06.332Z,13.90
2018-05-04T23:58:34.572Z,13.90
